createdAt,value
2023-04-10T00:00:11.690Z,31.10
2023-04-10T00:01:11.751Z,31.60
2023-04-10T00:02:11.705Z,32.10
2023-04-10T00:03:12.197Z,32.80
2023-04-10T00:04:11.747Z,30.50
2023-04-10T00:05:11.775Z,31.10
2023-04-10T00:06:11.591Z,31.80
2023-04-10T00:07:11.581Z,31.00
2023-04-10T00:08:11.564Z,31.50
2023-04-10T00:09:11.557Z,31.00
2023-04-10T00:10:11.542Z,30.20
2023-04-10T00:11:11.530Z,31.50
2023-04-10T00:12:11.555Z,30.60
2023-04-10T00:13:11.527Z,30.00
2023-04-10T00:14:11.501Z,30.40
2023-04-10T00:15:11.500Z,29.40
2023-04-10T00:16:11.580Z,30.50
2023-04-10T00:17:11.467Z,29.80
2023-04-10T00:18:11.452Z,29.50
2023-04-10T00:19:11.441Z,29.50
2023-04-10T00:20:11.430Z,30.70
2023-04-10T00:21:11.420Z,30.10
2023-04-10T00:22:11.410Z,31.00
2023-04-10T00:23:11.396Z,30.10
2023-04-10T00:24:11.386Z,29.70
2023-04-10T00:25:11.385Z,30.20
2023-04-10T00:26:11.367Z,29.70
2023-04-10T00:27:11.361Z,30.30
2023-04-10T00:28:11.347Z,30.60
2023-04-10T00:29:11.348Z,30.60
2023-04-10T00:30:11.357Z,30.60
2023-04-10T00:31:11.414Z,31.00
2023-04-10T00:32:11.499Z,31.90
2023-04-10T00:33:11.408Z,29.80
2023-04-10T00:34:11.418Z,30.50
2023-04-10T00:35:11.465Z,31.00
2023-04-10T00:36:11.318Z,29.40
2023-04-10T00:37:11.238Z,31.00
2023-04-10T00:38:11.231Z,32.70
2023-04-10T00:39:11.221Z,31.00
2023-04-10T00:40:11.212Z,30.70
2023-04-10T00:41:11.199Z,30.30
2023-04-10T00:42:11.191Z,30.00
2023-04-10T00:43:11.187Z,31.30
2023-04-10T00:44:11.167Z,30.20
2023-04-10T00:45:11.152Z,30.10
2023-04-10T00:46:11.198Z,30.20
2023-04-10T00:47:11.136Z,29.20
2023-04-10T00:48:11.144Z,30.70
2023-04-10T00:49:11.113Z,30.50
2023-04-10T00:50:11.106Z,30.20
2023-04-10T00:51:11.091Z,30.00
2023-04-10T00:52:11.098Z,30.10
2023-04-10T00:53:11.074Z,30.10
2023-04-10T00:54:11.055Z,31.00
2023-04-10T00:55:11.062Z,31.30
2023-04-10T00:56:11.044Z,32.40
2023-04-10T00:57:11.021Z,29.30
2023-04-10T00:58:11.015Z,31.80
2023-04-10T00:59:10.998Z,30.80
2023-04-10T01:00:10.991Z,30.30
2023-04-10T01:01:11.001Z,29.30
2023-04-10T01:02:11.043Z,28.70
2023-04-10T01:03:11.124Z,30.40
2023-04-10T01:04:11.043Z,29.90
2023-04-10T01:05:10.934Z,30.30
2023-04-10T01:06:10.918Z,30.20
2023-04-10T01:07:10.906Z,30.30
2023-04-10T01:08:10.900Z,30.80
2023-04-10T01:09:10.887Z,31.70
2023-04-10T01:10:10.872Z,32.50
2023-04-10T01:11:10.865Z,31.80
2023-04-10T01:12:10.860Z,31.30
2023-04-10T01:13:10.845Z,30.30
2023-04-10T01:14:10.831Z,31.70
2023-04-10T01:15:10.836Z,30.80
2023-04-10T01:16:10.817Z,30.70
2023-04-10T01:17:10.895Z,30.20
2023-04-10T01:18:10.777Z,30.50
2023-04-10T01:19:10.784Z,31.30
2023-04-10T01:20:10.792Z,32.00
2023-04-10T01:21:10.754Z,31.40
2023-04-10T01:22:10.749Z,30.20
2023-04-10T01:23:10.740Z,31.30
2023-04-10T01:24:10.723Z,31.60
2023-04-10T01:25:10.715Z,31.40
2023-04-10T01:26:10.695Z,31.80
2023-04-10T01:27:10.686Z,31.80
2023-04-10T01:28:10.665Z,32.70
2023-04-10T01:29:10.658Z,33.00
2023-04-10T01:30:10.650Z,31.80
2023-04-10T01:31:10.676Z,32.10
2023-04-10T01:32:10.902Z,31.70
2023-04-10T01:33:10.614Z,32.10
2023-04-10T01:34:10.635Z,31.50
2023-04-10T01:35:10.592Z,31.40
2023-04-10T01:36:10.648Z,33.80
2023-04-10T01:37:10.571Z,31.40
2023-04-10T01:38:10.555Z,31.60
2023-04-10T01:39:10.551Z,32.30
2023-04-10T01:40:10.534Z,32.50
2023-04-10T01:41:10.524Z,31.60
2023-04-10T01:42:10.516Z,31.00
2023-04-10T01:43:10.512Z,31.80
2023-04-10T01:44:10.492Z,31.60
2023-04-10T01:45:10.496Z,32.00
2023-04-10T01:46:10.484Z,32.20
2023-04-10T01:47:10.463Z,31.90
2023-04-10T01:48:10.448Z,32.50
2023-04-10T01:49:10.441Z,31.80
2023-04-10T01:50:10.427Z,32.20
2023-04-10T01:51:10.422Z,31.30
2023-04-10T01:52:10.428Z,31.30
2023-04-10T01:53:10.403Z,31.10
2023-04-10T01:54:10.398Z,32.00
2023-04-10T01:55:10.380Z,31.70
2023-04-10T01:56:10.360Z,32.40
2023-04-10T01:57:10.353Z,31.60
2023-04-10T01:58:10.347Z,32.80
2023-04-10T01:59:10.329Z,32.40
2023-04-10T02:00:10.398Z,33.30
2023-04-10T02:01:19.223Z,32.90
2023-04-10T02:02:11.546Z,33.50
2023-04-10T02:03:10.627Z,33.50
2023-04-10T02:04:10.480Z,32.70
2023-04-10T02:05:10.303Z,32.90
2023-04-10T02:06:10.257Z,32.60
2023-04-10T02:07:10.247Z,33.30
2023-04-10T02:08:10.264Z,32.40
2023-04-10T02:09:10.282Z,32.70
2023-04-10T02:10:10.204Z,33.50
2023-04-10T02:11:10.196Z,32.30
2023-04-10T02:12:10.188Z,32.90
2023-04-10T02:13:10.174Z,32.50
2023-04-10T02:14:10.161Z,32.70
2023-04-10T02:15:10.163Z,32.30
2023-04-10T02:16:10.186Z,33.20
2023-04-10T02:17:10.129Z,33.70
2023-04-10T02:18:10.127Z,33.50
2023-04-10T02:19:10.109Z,34.10
2023-04-10T02:20:10.091Z,35.10
2023-04-10T02:21:10.086Z,34.70
2023-04-10T02:22:10.081Z,34.70
2023-04-10T02:23:10.076Z,36.10
2023-04-10T02:24:10.079Z,34.50
2023-04-10T02:25:10.053Z,34.30
2023-04-10T02:26:10.035Z,33.40
2023-04-10T02:27:10.024Z,34.70
2023-04-10T02:28:10.019Z,35.30
2023-04-10T02:29:09.999Z,34.20
2023-04-10T02:30:09.986Z,34.10
2023-04-10T02:31:10.021Z,35.40
2023-04-10T02:32:09.959Z,35.70
2023-04-10T02:33:09.954Z,34.70
2023-04-10T02:34:09.947Z,35.30
2023-04-10T02:35:09.925Z,35.90
2023-04-10T02:36:09.941Z,35.70
2023-04-10T02:37:09.905Z,34.30
2023-04-10T02:38:09.892Z,33.50
2023-04-10T02:39:09.883Z,35.50
2023-04-10T02:40:09.901Z,35.70
2023-04-10T02:41:09.860Z,33.90
2023-04-10T02:42:09.846Z,36.00
2023-04-10T02:43:09.851Z,34.70
2023-04-10T02:44:09.832Z,36.60
2023-04-10T02:45:09.844Z,37.00
2023-04-10T02:46:09.892Z,37.80
2023-04-10T02:47:09.796Z,36.80
2023-04-10T02:48:09.784Z,37.40
2023-04-10T02:49:09.774Z,38.80
2023-04-10T02:50:09.758Z,37.00
2023-04-10T02:51:09.755Z,37.70
2023-04-10T02:52:09.740Z,38.40
2023-04-10T02:53:09.731Z,37.60
2023-04-10T02:54:09.714Z,38.10
2023-04-10T02:55:09.707Z,38.60
2023-04-10T02:56:09.719Z,38.00
2023-04-10T02:57:09.753Z,36.90
2023-04-10T02:58:09.670Z,38.00
2023-04-10T02:59:09.665Z,36.90
2023-04-10T03:00:09.656Z,37.30
2023-04-10T03:01:09.651Z,37.60
2023-04-10T03:02:09.722Z,38.00
2023-04-10T03:03:09.728Z,39.00
2023-04-10T03:04:09.692Z,38.20
2023-04-10T03:05:09.604Z,37.00
2023-04-10T03:06:09.587Z,38.60
2023-04-10T03:07:09.578Z,39.10
2023-04-10T03:08:09.572Z,36.80
2023-04-10T03:09:09.562Z,38.70
2023-04-10T03:10:09.555Z,38.30
2023-04-10T03:11:09.557Z,38.10
2023-04-10T03:12:09.546Z,38.20
2023-04-10T03:13:09.515Z,38.00
2023-04-10T03:14:09.505Z,38.50
2023-04-10T03:15:09.504Z,38.70
2023-04-10T03:16:09.544Z,39.30
2023-04-10T03:17:09.471Z,37.50
2023-04-10T03:18:09.587Z,38.20
2023-04-10T03:19:09.454Z,38.30
2023-04-10T03:20:09.446Z,38.20
2023-04-10T03:21:09.428Z,37.70
2023-04-10T03:22:09.418Z,38.10
2023-04-10T03:23:09.405Z,38.60
2023-04-10T03:24:09.411Z,38.50
2023-04-10T03:25:09.413Z,38.20
2023-04-10T03:26:09.375Z,38.00
2023-04-10T03:27:09.359Z,39.00
2023-04-10T03:28:09.372Z,38.10
2023-04-10T03:29:09.336Z,37.70
2023-04-10T03:30:09.324Z,39.60
2023-04-10T03:31:09.354Z,38.50
2023-04-10T03:32:09.300Z,39.80
2023-04-10T03:33:09.291Z,38.20
2023-04-10T03:34:09.284Z,38.90
2023-04-10T03:35:09.275Z,39.30
2023-04-10T03:36:09.315Z,38.60
2023-04-10T03:37:09.263Z,38.10
2023-04-10T03:38:09.240Z,38.50
2023-04-10T03:39:09.234Z,39.50
2023-04-10T03:40:09.229Z,38.60
2023-04-10T03:41:09.207Z,38.70
2023-04-10T03:42:09.209Z,38.70
2023-04-10T03:43:09.189Z,38.90
2023-04-10T03:44:09.196Z,38.70
2023-04-10T03:45:09.163Z,40.10
2023-04-10T03:46:09.164Z,39.30
2023-04-10T03:47:09.213Z,38.70
2023-04-10T03:48:09.137Z,37.60
2023-04-10T03:49:09.120Z,38.30
2023-04-10T03:50:09.110Z,39.00
2023-04-10T03:51:09.118Z,39.60
2023-04-10T03:52:09.163Z,39.60
2023-04-10T03:53:09.076Z,39.60
2023-04-10T03:54:09.064Z,38.90
2023-04-10T03:55:09.056Z,38.20
2023-04-10T03:56:09.048Z,39.30
2023-04-10T03:57:09.031Z,39.10
2023-04-10T03:58:09.026Z,38.70
2023-04-10T03:59:09.010Z,38.00
2023-04-10T04:00:09.021Z,38.20
2023-04-10T04:01:08.986Z,37.90
2023-04-10T04:02:09.028Z,38.50
2023-04-10T04:03:09.164Z,38.80
2023-04-10T04:04:09.064Z,39.00
2023-04-10T04:05:09.013Z,37.80
2023-04-10T04:06:08.929Z,38.10
2023-04-10T04:07:08.935Z,38.60
2023-04-10T04:08:08.909Z,39.30
2023-04-10T04:09:08.897Z,37.60
2023-04-10T04:10:08.894Z,37.20
2023-04-10T04:11:08.880Z,37.60
2023-04-10T04:12:08.874Z,39.00
2023-04-10T04:13:08.853Z,38.50
2023-04-10T04:14:08.845Z,38.50
2023-04-10T04:15:08.830Z,38.50
2023-04-10T04:16:08.914Z,36.90
2023-04-10T04:17:08.812Z,37.00
2023-04-10T04:18:08.798Z,37.30
2023-04-10T04:19:08.802Z,36.40
2023-04-10T04:20:08.791Z,37.30
2023-04-10T04:21:08.774Z,36.90
2023-04-10T04:22:08.755Z,35.80
2023-04-10T04:23:08.749Z,37.40
2023-04-10T04:24:08.735Z,37.10
2023-04-10T04:25:08.769Z,36.10
2023-04-10T04:26:08.712Z,38.00
2023-04-10T04:27:08.707Z,38.30
2023-04-10T04:28:08.700Z,36.80
2023-04-10T04:29:08.692Z,36.80
2023-04-10T04:30:08.667Z,37.30
2023-04-10T04:31:08.665Z,37.10
2023-04-10T04:32:08.897Z,36.40
2023-04-10T04:33:08.707Z,37.30
2023-04-10T04:34:08.624Z,35.60
2023-04-10T04:35:08.618Z,36.50
2023-04-10T04:36:08.647Z,36.30
2023-04-10T04:37:08.597Z,36.20
2023-04-10T04:38:08.585Z,36.90
2023-04-10T04:39:08.574Z,37.50
2023-04-10T04:40:08.565Z,36.10
2023-04-10T04:41:08.554Z,36.80
2023-04-10T04:42:08.548Z,36.30
2023-04-10T04:43:08.552Z,35.70
2023-04-10T04:44:08.527Z,35.80
2023-04-10T04:45:08.517Z,35.80
2023-04-10T04:46:08.528Z,35.30
2023-04-10T04:47:08.491Z,34.30
2023-04-10T04:48:08.498Z,35.20
2023-04-10T04:49:08.470Z,35.00
2023-04-10T04:50:08.459Z,35.10
2023-04-10T04:51:08.445Z,34.90
2023-04-10T04:52:08.436Z,36.00
2023-04-10T04:53:08.427Z,35.30
2023-04-10T04:54:08.415Z,35.50
2023-04-10T04:55:08.409Z,34.80
2023-04-10T04:56:08.396Z,35.10
2023-04-10T04:57:08.382Z,34.70
2023-04-10T04:58:08.371Z,34.00
2023-04-10T04:59:08.363Z,34.10
2023-04-10T05:00:08.349Z,34.40
2023-04-10T05:01:08.418Z,34.30
2023-04-10T05:02:08.392Z,34.80
2023-04-10T05:03:08.380Z,34.00
2023-04-10T05:04:08.438Z,34.50
2023-04-10T05:05:08.302Z,33.00
2023-04-10T05:06:08.288Z,33.50
2023-04-10T05:07:08.274Z,33.20
2023-04-10T05:08:08.259Z,33.20
2023-04-10T05:09:08.251Z,32.70
2023-04-10T05:10:08.238Z,32.80
2023-04-10T05:11:08.230Z,32.80
2023-04-10T05:12:08.213Z,33.00
2023-04-10T05:13:08.205Z,33.50
2023-04-10T05:14:08.192Z,32.90
2023-04-10T05:15:08.185Z,32.50
2023-04-10T05:16:08.237Z,31.80
2023-04-10T05:17:08.163Z,32.50
2023-04-10T05:18:08.193Z,32.50
2023-04-10T05:19:08.131Z,32.90
2023-04-10T05:20:08.151Z,31.50
2023-04-10T05:21:08.107Z,32.70
2023-04-10T05:22:08.100Z,32.40
2023-04-10T05:23:08.089Z,30.90
2023-04-10T05:24:08.077Z,31.50
2023-04-10T05:25:08.086Z,31.10
2023-04-10T05:26:08.053Z,31.50
2023-04-10T05:27:08.043Z,31.10
2023-04-10T05:28:08.032Z,31.80
2023-04-10T05:29:08.019Z,32.30
2023-04-10T05:30:08.011Z,31.90
2023-04-10T05:31:08.018Z,32.70
2023-04-10T05:32:07.999Z,31.50
2023-04-10T05:33:07.977Z,30.70
2023-04-10T05:34:07.967Z,31.30
2023-04-10T05:35:07.992Z,30.10
2023-04-10T05:36:08.042Z,30.30
2023-04-10T05:37:07.934Z,31.10
2023-04-10T05:38:07.924Z,29.90
2023-04-10T05:39:07.929Z,30.20
2023-04-10T05:40:07.914Z,31.20
2023-04-10T05:41:07.892Z,30.30
2023-04-10T05:42:07.923Z,30.60
2023-04-10T05:43:07.874Z,30.50
2023-04-10T05:44:07.861Z,29.90
2023-04-10T05:45:07.850Z,29.50
2023-04-10T05:46:07.880Z,30.50
2023-04-10T05:47:07.826Z,30.10
2023-04-10T05:48:07.850Z,30.30
2023-04-10T05:49:07.802Z,29.60
2023-04-10T05:50:07.792Z,30.00
2023-04-10T05:51:07.782Z,29.50
2023-04-10T05:52:07.807Z,28.60
2023-04-10T05:53:07.766Z,27.90
2023-04-10T05:54:07.762Z,28.20
2023-04-10T05:55:07.752Z,28.20
2023-04-10T05:56:07.769Z,28.30
2023-04-10T05:57:07.726Z,29.30
2023-04-10T05:58:07.705Z,28.40
2023-04-10T05:59:07.696Z,28.50
2023-04-10T06:00:07.687Z,27.70
2023-04-10T06:01:07.689Z,28.10
2023-04-10T06:02:07.767Z,27.70
2023-04-10T06:03:07.726Z,27.00
2023-04-10T06:04:07.859Z,26.90
2023-04-10T06:05:07.693Z,27.00
2023-04-10T06:06:07.625Z,27.20
2023-04-10T06:07:07.608Z,27.00
2023-04-10T06:08:07.620Z,26.90
2023-04-10T06:09:07.622Z,26.90
2023-04-10T06:10:07.584Z,27.00
2023-04-10T06:11:07.675Z,27.50
2023-04-10T06:12:07.552Z,26.80
2023-04-10T06:13:08.767Z,25.80
2023-04-10T06:14:07.530Z,26.40
2023-04-10T06:15:07.518Z,26.40
2023-04-10T06:16:07.580Z,26.50
2023-04-10T06:17:07.497Z,25.50
2023-04-10T06:18:07.501Z,25.50
2023-04-10T06:19:07.518Z,26.00
2023-04-10T06:20:07.517Z,24.50
2023-04-10T06:21:07.526Z,25.10
2023-04-10T06:22:07.687Z,24.70
2023-04-10T06:23:07.448Z,23.10
2023-04-10T06:24:07.447Z,24.50
2023-04-10T06:25:07.429Z,24.80
2023-04-10T06:26:07.401Z,23.30
2023-04-10T06:27:07.382Z,23.70
2023-04-10T06:28:07.621Z,23.10
2023-04-10T06:29:07.389Z,22.20
2023-04-10T06:30:07.647Z,22.00
2023-04-10T06:31:07.670Z,21.60
2023-04-10T06:32:07.348Z,21.20
2023-04-10T06:33:07.318Z,21.10
2023-04-10T06:34:07.307Z,21.30
2023-04-10T06:35:07.298Z,21.20
2023-04-10T06:36:07.293Z,20.60
2023-04-10T06:37:07.313Z,20.90
2023-04-10T06:38:07.272Z,20.10
2023-04-10T06:39:07.534Z,21.10
2023-04-10T06:40:07.277Z,20.60
2023-04-10T06:41:07.253Z,20.60
2023-04-10T06:42:07.223Z,20.30
2023-04-10T06:43:07.213Z,21.00
2023-04-10T06:44:07.247Z,20.70
2023-04-10T06:45:07.238Z,20.70
2023-04-10T06:46:07.184Z,20.20
2023-04-10T06:47:07.238Z,20.70
2023-04-10T06:48:07.168Z,19.80
2023-04-10T06:49:07.144Z,20.20
2023-04-10T06:50:07.141Z,19.90
2023-04-10T06:51:07.133Z,20.30
2023-04-10T06:52:07.116Z,20.40
2023-04-10T06:53:07.099Z,20.50
2023-04-10T06:54:07.103Z,19.60
2023-04-10T06:55:07.168Z,21.80
2023-04-10T06:56:07.376Z,19.80
2023-04-10T06:57:07.055Z,19.30
2023-04-10T06:58:07.055Z,20.80
2023-04-10T06:59:07.032Z,19.30
2023-04-10T07:00:07.026Z,20.10
2023-04-10T07:01:07.042Z,20.00
2023-04-10T07:02:07.081Z,20.50
2023-04-10T07:03:07.032Z,19.80
2023-04-10T07:04:07.096Z,19.00
2023-04-10T07:05:07.221Z,18.70
2023-04-10T07:06:06.958Z,18.70
2023-04-10T07:07:06.965Z,19.10
2023-04-10T07:08:06.939Z,17.50
2023-04-10T07:09:06.926Z,19.00
2023-04-10T07:10:06.915Z,18.40
2023-04-10T07:11:06.907Z,18.90
2023-04-10T07:12:06.913Z,19.00
2023-04-10T07:13:06.899Z,18.60
2023-04-10T07:14:06.872Z,18.90
2023-04-10T07:15:06.854Z,19.20
2023-04-10T07:16:06.935Z,18.70
2023-04-10T07:17:06.837Z,18.80
2023-04-10T07:18:07.007Z,18.20
2023-04-10T07:19:06.826Z,18.20
2023-04-10T07:20:06.810Z,17.80
2023-04-10T07:21:06.791Z,19.00
2023-04-10T07:22:06.783Z,18.20
2023-04-10T07:23:06.771Z,18.20
2023-04-10T07:24:06.767Z,19.00
2023-04-10T07:25:06.755Z,17.90
2023-04-10T07:26:06.743Z,17.40
2023-04-10T07:27:06.720Z,17.60
2023-04-10T07:28:06.731Z,17.60
2023-04-10T07:29:06.703Z,17.30
2023-04-10T07:30:06.693Z,17.00
2023-04-10T07:31:06.692Z,17.50
2023-04-10T07:32:06.807Z,17.60
2023-04-10T07:33:06.777Z,18.20
2023-04-10T07:34:06.720Z,17.20
2023-04-10T07:35:06.707Z,16.70
2023-04-10T07:36:06.836Z,17.90
2023-04-10T07:37:06.737Z,16.90
2023-04-10T07:38:06.715Z,18.20
2023-04-10T07:39:06.832Z,17.90
2023-04-10T07:40:06.805Z,16.20
2023-04-10T07:41:06.580Z,16.60
2023-04-10T07:42:06.582Z,17.00
2023-04-10T07:43:06.545Z,16.00
2023-04-10T07:44:06.571Z,17.60
2023-04-10T07:45:06.538Z,17.40
2023-04-10T07:46:06.544Z,17.70
2023-04-10T07:47:06.506Z,17.50
2023-04-10T07:48:06.607Z,16.10
2023-04-10T07:49:08.514Z,16.00
2023-04-10T07:50:06.477Z,16.30
2023-04-10T07:51:06.466Z,16.50
2023-04-10T07:52:06.486Z,16.00
2023-04-10T07:53:06.463Z,16.30
2023-04-10T07:54:06.441Z,15.80
2023-04-10T07:55:06.414Z,16.50
2023-04-10T07:56:06.432Z,17.10
2023-04-10T07:57:06.392Z,15.50
2023-04-10T07:58:06.392Z,16.50
2023-04-10T07:59:06.371Z,16.40
2023-04-10T08:00:06.389Z,16.70
2023-04-10T08:01:06.348Z,16.00
2023-04-10T08:02:06.427Z,15.00
2023-04-10T08:03:06.784Z,15.30
2023-04-10T08:04:06.551Z,15.10
2023-04-10T08:05:06.331Z,15.60
2023-04-10T08:06:06.305Z,14.80
2023-04-10T08:07:06.286Z,15.00
2023-04-10T08:08:06.273Z,14.50
2023-04-10T08:09:06.490Z,15.00
2023-04-10T08:10:06.250Z,14.90
2023-04-10T08:11:06.239Z,14.90
2023-04-10T08:12:06.229Z,14.70
2023-04-10T08:13:06.239Z,14.20
2023-04-10T08:14:06.210Z,14.50
2023-04-10T08:15:06.201Z,14.40
2023-04-10T08:16:06.231Z,13.80
2023-04-10T08:17:06.208Z,14.30
2023-04-10T08:18:06.181Z,14.00
2023-04-10T08:19:06.152Z,14.50
2023-04-10T08:20:06.140Z,14.50
2023-04-10T08:21:06.132Z,14.60
2023-04-10T08:22:06.127Z,14.00
2023-04-10T08:23:17.003Z,13.50
2023-04-10T08:24:07.146Z,13.60
2023-04-10T08:25:06.088Z,14.00
2023-04-10T08:26:06.079Z,13.90
2023-04-10T08:27:06.068Z,13.40
2023-04-10T08:28:06.079Z,13.60
2023-04-10T08:29:06.046Z,13.70
2023-04-10T08:30:06.056Z,13.60
2023-04-10T08:31:06.116Z,14.00
2023-04-10T08:32:06.039Z,13.50
2023-04-10T08:33:06.001Z,13.50
2023-04-10T08:34:05.998Z,13.50
2023-04-10T08:35:05.979Z,12.80
2023-04-10T08:36:06.000Z,12.60
2023-04-10T08:37:05.963Z,13.20
2023-04-10T08:38:13.309Z,13.60
2023-04-10T08:39:06.964Z,12.40
2023-04-10T08:40:05.928Z,12.60
2023-04-10T08:41:05.914Z,12.40
2023-04-10T08:42:05.905Z,11.40
2023-04-10T08:43:05.894Z,12.20
2023-04-10T08:44:05.885Z,13.20
2023-04-10T08:45:05.891Z,12.40
2023-04-10T08:46:05.894Z,12.30
2023-04-10T08:47:05.873Z,12.00
2023-04-10T08:48:05.871Z,12.00
2023-04-10T08:49:05.850Z,12.10
2023-04-10T08:50:05.818Z,11.60
2023-04-10T08:51:06.180Z,12.00
2023-04-10T08:52:05.796Z,11.80
2023-04-10T08:53:05.783Z,11.40
2023-04-10T08:54:05.775Z,11.50
2023-04-10T08:55:05.783Z,10.70
2023-04-10T08:56:05.770Z,11.60
2023-04-10T08:57:05.738Z,10.80
2023-04-10T08:58:05.735Z,11.30
2023-04-10T08:59:05.721Z,10.50
2023-04-10T09:00:16.326Z,11.20
2023-04-10T09:01:06.731Z,11.20
2023-04-10T09:02:05.828Z,11.20
2023-04-10T09:03:05.757Z,10.30
2023-04-10T09:04:05.786Z,11.20
2023-04-10T09:05:05.651Z,11.10
2023-04-10T09:06:05.656Z,11.40
2023-04-10T09:07:05.666Z,11.10
2023-04-10T09:08:05.619Z,11.20
2023-04-10T09:09:05.612Z,11.10
2023-04-10T09:10:05.600Z,10.90
2023-04-10T09:11:05.588Z,11.10
2023-04-10T09:12:05.579Z,10.60
2023-04-10T09:13:05.578Z,10.20
2023-04-10T09:14:05.561Z,10.70
2023-04-10T09:15:05.543Z,9.80
2023-04-10T09:16:05.599Z,10.70
2023-04-10T09:17:05.527Z,10.10
2023-04-10T09:18:05.566Z,9.60
2023-04-10T09:19:06.439Z,10.60
2023-04-10T09:20:05.776Z,10.90
2023-04-10T09:21:05.486Z,10.10
2023-04-10T09:22:05.472Z,10.40
2023-04-10T09:23:05.468Z,10.10
2023-04-10T09:24:05.465Z,9.40
2023-04-10T09:25:05.456Z,9.20
2023-04-10T09:26:05.446Z,9.40
2023-04-10T09:27:05.424Z,8.60
2023-04-10T09:28:05.428Z,8.90
2023-04-10T09:29:05.409Z,9.20
2023-04-10T09:30:05.404Z,8.90
2023-04-10T09:31:05.416Z,9.40
2023-04-10T09:32:05.385Z,8.20
2023-04-10T09:33:05.388Z,8.30
2023-04-10T09:34:05.358Z,9.30
2023-04-10T09:35:05.341Z,9.10
2023-04-10T09:36:05.390Z,8.40
2023-04-10T09:37:05.396Z,8.30
2023-04-10T09:38:05.310Z,8.20
2023-04-10T09:39:05.312Z,8.20
2023-04-10T09:40:05.295Z,7.80
2023-04-10T09:41:05.288Z,7.80
2023-04-10T09:42:05.275Z,8.10
2023-04-10T09:43:05.272Z,7.80
2023-04-10T09:44:05.250Z,8.40
2023-04-10T09:45:05.250Z,8.10
2023-04-10T09:46:05.272Z,7.60
2023-04-10T09:47:05.218Z,7.80
2023-04-10T09:48:05.256Z,8.20
2023-04-10T09:49:05.220Z,7.70
2023-04-10T09:50:05.182Z,8.00
2023-04-10T09:51:05.178Z,7.90
2023-04-10T09:52:05.310Z,7.80
2023-04-10T09:53:05.149Z,7.80
2023-04-10T09:54:05.149Z,7.30
2023-04-10T09:55:05.137Z,7.20
2023-04-10T09:56:05.125Z,7.50
2023-04-10T09:57:05.121Z,7.50
2023-04-10T09:58:05.104Z,7.30
2023-04-10T09:59:05.096Z,7.50
2023-04-10T10:00:05.148Z,7.10
2023-04-10T10:01:05.065Z,6.30
2023-04-10T10:02:05.124Z,7.50
2023-04-10T10:03:05.292Z,7.20
2023-04-10T10:04:05.031Z,7.20
2023-04-10T10:05:05.056Z,7.10
2023-04-10T10:06:05.009Z,7.00
2023-04-10T10:07:04.993Z,7.00
2023-04-10T10:08:05.007Z,7.10
2023-04-10T10:09:04.993Z,7.40
2023-04-10T10:10:04.967Z,6.70
2023-04-10T10:11:04.960Z,6.80
2023-04-10T10:12:04.943Z,7.60
2023-04-10T10:13:04.932Z,7.90
2023-04-10T10:14:04.938Z,7.60
2023-04-10T10:15:04.910Z,7.20
2023-04-10T10:16:04.969Z,6.80
2023-04-10T10:17:04.888Z,6.30
2023-04-10T10:18:04.932Z,6.50
2023-04-10T10:19:04.887Z,6.50
2023-04-10T10:20:04.932Z,6.10
2023-04-10T10:21:04.856Z,6.80
2023-04-10T10:22:04.839Z,6.60
2023-04-10T10:23:04.835Z,7.20
2023-04-10T10:24:04.836Z,6.90
2023-04-10T10:25:04.806Z,7.00
2023-04-10T10:26:04.792Z,6.60
2023-04-10T10:27:05.166Z,6.90
2023-04-10T10:28:04.786Z,6.60
2023-04-10T10:29:04.768Z,5.70
2023-04-10T10:30:11.999Z,6.40
2023-04-10T10:31:05.796Z,6.20
2023-04-10T10:32:04.743Z,6.50
2023-04-10T10:33:04.737Z,6.90
2023-04-10T10:34:04.749Z,6.50
2023-04-10T10:35:04.711Z,7.00
2023-04-10T10:36:04.698Z,6.80
2023-04-10T10:37:04.684Z,6.80
2023-04-10T10:38:04.672Z,6.20
2023-04-10T10:39:04.660Z,6.90
2023-04-10T10:40:04.675Z,7.00
2023-04-10T10:41:04.643Z,6.50
2023-04-10T10:42:04.633Z,6.40
2023-04-10T10:43:04.663Z,6.60
2023-04-10T10:44:04.611Z,6.20
2023-04-10T10:45:04.605Z,7.00
2023-04-10T10:46:04.616Z,6.60
2023-04-10T10:47:04.608Z,6.50
2023-04-10T10:48:04.624Z,6.80
2023-04-10T10:49:04.556Z,6.30
2023-04-10T10:50:04.550Z,6.80
2023-04-10T10:51:04.539Z,7.10
2023-04-10T10:52:04.530Z,6.80
2023-04-10T10:53:04.605Z,6.20
2023-04-10T10:54:04.568Z,6.00
2023-04-10T10:55:04.505Z,6.70
2023-04-10T10:56:04.506Z,7.00
2023-04-10T10:57:04.472Z,7.40
2023-04-10T10:58:04.464Z,6.40
2023-04-10T10:59:04.500Z,7.00
2023-04-10T11:00:04.454Z,6.50
2023-04-10T11:01:04.474Z,6.80
2023-04-10T11:02:04.509Z,6.70
2023-04-10T11:03:04.542Z,6.50
2023-04-10T11:04:04.633Z,6.70
2023-04-10T11:05:04.389Z,6.80
2023-04-10T11:06:04.448Z,6.90
2023-04-10T11:07:05.342Z,7.00
2023-04-10T11:08:04.362Z,6.50
2023-04-10T11:09:04.362Z,6.20
2023-04-10T11:10:04.336Z,6.80
2023-04-10T11:11:04.335Z,6.00
2023-04-10T11:12:04.340Z,7.00
2023-04-10T11:13:04.318Z,6.20
2023-04-10T11:14:04.329Z,7.10
2023-04-10T11:15:04.351Z,6.70
2023-04-10T11:16:04.343Z,6.80
2023-04-10T11:17:04.343Z,6.40
2023-04-10T11:18:04.263Z,6.60
2023-04-10T11:19:13.897Z,6.50
2023-04-10T11:20:04.627Z,6.40
2023-04-10T11:21:04.330Z,6.20
2023-04-10T11:22:04.411Z,6.50
2023-04-10T11:23:04.326Z,5.30
2023-04-10T11:24:04.322Z,6.50
2023-04-10T11:25:04.175Z,6.30
2023-04-10T11:26:04.163Z,5.50
2023-04-10T11:27:04.158Z,5.30
2023-04-10T11:28:04.168Z,5.80
2023-04-10T11:29:04.129Z,5.60
2023-04-10T11:30:04.119Z,5.60
2023-04-10T11:31:04.127Z,5.80
2023-04-10T11:32:04.231Z,6.00
2023-04-10T11:33:04.187Z,5.70
2023-04-10T11:34:04.634Z,5.60
2023-04-10T11:35:05.101Z,5.40
2023-04-10T11:36:04.099Z,5.80
2023-04-10T11:37:04.053Z,5.10
2023-04-10T11:38:04.329Z,5.70
2023-04-10T11:39:04.282Z,5.60
2023-04-10T11:40:04.280Z,5.70
2023-04-10T11:41:04.450Z,5.90
2023-04-10T11:42:04.279Z,5.50
2023-04-10T11:43:04.252Z,5.50
2023-04-10T11:44:04.010Z,5.60
2023-04-10T11:45:03.960Z,5.60
2023-04-10T11:46:03.974Z,5.10
2023-04-10T11:47:03.934Z,5.20
2023-04-10T11:48:03.945Z,4.70
2023-04-10T11:49:03.911Z,5.10
2023-04-10T11:50:03.902Z,5.50
2023-04-10T11:51:03.890Z,5.00
2023-04-10T11:52:03.876Z,5.20
2023-04-10T11:53:03.865Z,5.30
2023-04-10T11:54:03.851Z,4.60
2023-04-10T11:55:03.850Z,5.20
2023-04-10T11:56:03.840Z,4.40
2023-04-10T11:57:03.823Z,5.00
2023-04-10T11:58:03.833Z,5.40
2023-04-10T11:59:03.798Z,5.00
2023-04-10T12:00:03.815Z,4.90
2023-04-10T12:01:03.787Z,4.70
2023-04-10T12:02:03.843Z,5.40
2023-04-10T12:03:03.868Z,4.60
2023-04-10T12:04:03.901Z,5.40
2023-04-10T12:05:03.815Z,5.40
2023-04-10T12:06:03.728Z,4.90
2023-04-10T12:07:03.707Z,4.70
2023-04-10T12:08:03.738Z,4.80
2023-04-10T12:09:03.696Z,4.70
2023-04-10T12:10:03.681Z,4.80
2023-04-10T12:11:03.684Z,5.50
2023-04-10T12:12:03.653Z,5.10
2023-04-10T12:13:03.655Z,4.90
2023-04-10T12:14:03.629Z,5.10
2023-04-10T12:15:03.626Z,4.80
2023-04-10T12:16:03.669Z,4.60
2023-04-10T12:17:03.603Z,5.50
2023-04-10T12:18:03.648Z,5.20
2023-04-10T12:19:03.580Z,4.90
2023-04-10T12:20:03.588Z,4.70
2023-04-10T12:21:04.241Z,4.80
2023-04-10T12:22:03.567Z,4.70
2023-04-10T12:23:03.537Z,4.50
2023-04-10T12:24:03.526Z,4.60
2023-04-10T12:25:03.515Z,4.60
2023-04-10T12:26:03.501Z,4.30
2023-04-10T12:27:03.491Z,4.70
2023-04-10T12:28:03.480Z,4.50
2023-04-10T12:29:03.472Z,4.50
2023-04-10T12:30:03.463Z,4.80
2023-04-10T12:31:03.498Z,4.70
2023-04-10T12:32:03.506Z,4.90
2023-04-10T12:33:03.527Z,4.50
2023-04-10T12:34:03.435Z,4.50
2023-04-10T12:35:03.415Z,4.10
2023-04-10T12:36:03.455Z,4.20
2023-04-10T12:37:03.454Z,4.40
2023-04-10T12:38:03.393Z,4.50
2023-04-10T12:39:03.490Z,4.20
2023-04-10T12:40:03.367Z,4.30
2023-04-10T12:41:03.357Z,4.50
2023-04-10T12:42:03.346Z,3.90
2023-04-10T12:43:03.497Z,4.10
2023-04-10T12:44:03.348Z,3.90
2023-04-10T12:45:03.327Z,4.30
2023-04-10T12:46:03.406Z,4.30
2023-04-10T12:47:03.393Z,4.30
2023-04-10T12:48:03.588Z,4.00
2023-04-10T12:49:03.335Z,4.10
2023-04-10T12:50:03.375Z,4.00
2023-04-10T12:51:03.254Z,4.40
2023-04-10T12:52:03.248Z,4.20
2023-04-10T12:53:03.232Z,4.30
2023-04-10T12:54:03.224Z,4.40
2023-04-10T12:55:03.211Z,4.60
2023-04-10T12:56:03.212Z,4.00
2023-04-10T12:57:03.220Z,4.20
2023-04-10T12:58:03.180Z,4.60
2023-04-10T12:59:03.170Z,4.50